Time;durP1;ratioP1;P1;durP2;ratioP2;P2;SDS_P1;SDS_P2;PMS_P1;PMS_P2;Temp;Humidity;BMP_temperature;BMP_pressure;BME280_temperature;BME280_humidity;BME280_pressure;Samples;Min_cycle;Max_cycle;Signal;HPM_P1;HPM_P2
2022/12/20 00:02:21;;;;;;;135.4;82.6;;;;;;;-3.5;84.6;99760;;;;
2022/12/20 00:12:20;;;;;;;124.1;79.6;;;;;;;-3.4;84.9;99750;;;;
2022/12/20 00:22:20;;;;;;;124.1;79.6;;;;;;;-3.3;84.5;99760;;;;
2022/12/20 00:33:20;;;;;;;124.1;79.6;;;;;;;-3.2;84.7;99770;;;;
2022/12/20 00:43:20;;;;;;;166.9;100.3;;;;;;;-3;84.7;99780;;;;
2022/12/20 00:53:20;;;;;;;166.9;100.3;;;;;;;-2.9;84.4;99780;;;;
2022/12/20 01:03:20;;;;;;;166.9;100.3;;;;;;;-2.8;84.9;99760;;;;
2022/12/20 01:13:20;;;;;;;162;104.7;;;;;;;-2.6;85.7;99750;;;;
2022/12/20 01:24:20;;;;;;;162;104.7;;;;;;;-2.3;86;99740;;;;
2022/12/20 01:34:20;;;;;;;162;104.7;;;;;;;-2.1;86;99730;;;;
2022/12/20 01:44:20;;;;;;;168.9;104.6;;;;;;;-2;85.7;99720;;;;
2022/12/20 01:54:20;;;;;;;168.9;104.6;;;;;;;-2;85.3;99700;;;;
2022/12/20 02:05:20;;;;;;;168.9;104.6;;;;;;;-1.9;85.4;99690;;;;
2022/12/20 02:15:20;;;;;;;168.9;110.8;;;;;;;-1.9;84.8;99730;;;;
2022/12/20 02:26:20;;;;;;;168.9;110.8;;;;;;;-2;84.5;99700;;;;
2022/12/20 02:37:20;;;;;;;180.9;109.8;;;;;;;-1.8;84.8;99680;;;;
2022/12/20 02:47:20;;;;;;;180.9;109.8;;;;;;;-1.6;85.2;99670;;;;
2022/12/20 02:57:20;;;;;;;180.9;109.8;;;;;;;-1.5;85.5;99670;;;;
2022/12/20 03:08:21;;;;;;;163.5;105.1;;;;;;;-1.4;85.6;99680;;;;
2022/12/20 03:18:20;;;;;;;163.5;105.1;;;;;;;-1.4;85;99690;;;;
2022/12/20 03:29:20;;;;;;;163.5;105.1;;;;;;;-1.5;85.3;99670;;;;
2022/12/20 03:39:20;;;;;;;155.1;104.6;;;;;;;-1.2;86.1;99670;;;;
2022/12/20 03:50:20;;;;;;;155.1;104.6;;;;;;;-1.2;85.5;99680;;;;
2022/12/20 04:00:21;;;;;;;155.1;104.6;;;;;;;-1.3;85.5;99650;;;;
2022/12/20 04:10:20;;;;;;;151.4;105.5;;;;;;;-1.5;84.7;99640;;;;
2022/12/20 04:20:21;;;;;;;151.4;105.5;;;;;;;-1.6;84.6;99640;;;;
2022/12/20 04:30:21;;;;;;;151.4;105.5;;;;;;;-2;84.4;99640;;;;
2022/12/20 04:41:21;;;;;;;146.4;88.8;;;;;;;-2.2;84.5;99640;;;;
2022/12/20 04:51:20;;;;;;;146.4;88.8;;;;;;;-2.3;85;99630;;;;
2022/12/20 05:01:21;;;;;;;146.4;88.8;;;;;;;-2.3;85.5;99630;;;;
2022/12/20 05:12:23;;;;;;;122.6;74.4;;;;;;;-2.3;85.7;99640;;;;
2022/12/20 05:34:20;;;;;;;122.6;74.4;;;;;;;-2.4;85.5;99640;;;;
2022/12/20 05:45:20;;;;;;;100.6;63.1;;;;;;;-2.5;85.6;99630;;;;
2022/12/20 05:55:20;;;;;;;100.6;63.1;;;;;;;-2.6;85.7;99640;;;;
2022/12/20 06:05:21;;;;;;;100.6;63.1;;;;;;;-2.4;86.3;99650;;;;
2022/12/20 06:16:22;;;;;;;67.2;38.4;;;;;;;-2.2;86.6;99620;;;;
2022/12/20 06:27:21;;;;;;;67.2;38.4;;;;;;;-1.8;87;99630;;;;
2022/12/20 06:37:21;;;;;;;36.4;21.6;;;;;;;-1.4;86.8;99620;;;;
2022/12/20 06:47:20;;;;;;;36.4;21.6;;;;;;;-1.2;86.4;99620;;;;
2022/12/20 06:58:21;;;;;;;36.4;21.6;;;;;;;-1;86.1;99610;;;;
2022/12/20 07:09:21;;;;;;;29.3;17.5;;;;;;;-0.8;86;99610;;;;
2022/12/20 07:20:21;;;;;;;29.3;17.5;;;;;;;-0.7;85.7;99610;;;;
2022/12/20 07:30:22;;;;;;;29.3;17.5;;;;;;;-0.7;85.3;99610;;;;
2022/12/20 07:40:21;;;;;;;31.4;19.4;;;;;;;-0.4;85.3;99610;;;;
2022/12/20 07:51:21;;;;;;;31.4;19.4;;;;;;;-0.1;84.8;99610;;;;
2022/12/20 08:01:21;;;;;;;31.4;19.4;;;;;;;0.2;84.2;99620;;;;
2022/12/20 08:12:21;;;;;;;36.7;22.7;;;;;;;0.5;83.5;99620;;;;
2022/12/20 08:22:21;;;;;;;36.7;22.7;;;;;;;0.7;82.4;99610;;;;
2022/12/20 08:33:20;;;;;;;36.7;22.7;;;;;;;1.2;81.7;99600;;;;
2022/12/20 08:43:20;;;;;;;51.2;39.7;;;;;;;1.5;81.1;99600;;;;
2022/12/20 08:53:21;;;;;;;51.2;39.7;;;;;;;1.8;79.2;99590;;;;
2022/12/20 09:03:20;;;;;;;51.2;39.7;;;;;;;2;78.3;99590;;;;
2022/12/20 09:14:21;;;;;;;52.2;37.7;;;;;;;2.3;78.1;99590;;;;
2022/12/20 09:24:21;;;;;;;52.2;37.7;;;;;;;2.2;77.8;99560;;;;
2022/12/20 09:35:21;;;;;;;52.2;37.7;;;;;;;2.5;77.1;99570;;;;
2022/12/20 09:46:21;;;;;;;52.9;38.1;;;;;;;2.5;76.5;99570;;;;
2022/12/20 09:56:20;;;;;;;52.9;38.1;;;;;;;2.9;75.9;99550;;;;
2022/12/20 10:06:21;;;;;;;54.8;43.5;;;;;;;3;76.4;99560;;;;
2022/12/20 10:17:21;;;;;;;54.8;43.5;;;;;;;3.2;75.6;99550;;;;
2022/12/20 10:27:21;;;;;;;54.8;43.5;;;;;;;3.4;79.7;99530;;;;
2022/12/20 10:37:21;;;;;;;46.9;38.5;;;;;;;3.1;79.6;99500;;;;
2022/12/20 10:47:21;;;;;;;46.9;38.5;;;;;;;3.6;80.9;99460;;;;
2022/12/20 10:57:21;;;;;;;46.9;38.5;;;;;;;4;80;99440;;;;
2022/12/20 11:08:23;;;;;;;48.8;38.2;;;;;;;4.4;80.1;99440;;;;
2022/12/20 11:19:21;;;;;;;48.8;38.2;;;;;;;4.1;76.1;99450;;;;
2022/12/20 11:29:21;;;;;;;48.8;38.2;;;;;;;4.1;77.3;99440;;;;
2022/12/20 11:40:21;;;;;;;58.5;47.4;;;;;;;3.1;78.1;99430;;;;
2022/12/20 11:51:21;;;;;;;58.5;47.4;;;;;;;3.1;80.1;99410;;;;
2022/12/20 12:01:21;;;;;;;58.5;47.4;;;;;;;3.6;82.7;99420;;;;
2022/12/20 12:11:21;;;;;;;55.8;41.3;;;;;;;3.8;81.3;99410;;;;
2022/12/20 12:21:21;;;;;;;55.8;41.3;;;;;;;3.4;77.5;99390;;;;
2022/12/20 12:32:21;;;;;;;55.8;41.3;;;;;;;3.4;80.3;99370;;;;
2022/12/20 12:42:21;;;;;;;51.4;40.9;;;;;;;3.2;81.5;99350;;;;
2022/12/20 12:53:21;;;;;;;51.4;40.9;;;;;;;3.3;82.6;99350;;;;
2022/12/20 13:04:21;;;;;;;51.4;40.9;;;;;;;3.2;80.9;99370;;;;
2022/12/20 13:14:22;;;;;;;48.9;39.1;;;;;;;3;79.5;99380;;;;
2022/12/20 13:25:21;;;;;;;48.9;39.1;;;;;;;2.7;81.9;99380;;;;
2022/12/20 13:35:21;;;;;;;56.9;42.3;;;;;;;2.6;84.4;99350;;;;
2022/12/20 13:45:21;;;;;;;56.9;42.3;;;;;;;2.6;85.1;99340;;;;
2022/12/20 13:56:21;;;;;;;56.9;42.3;;;;;;;2.4;85.2;99360;;;;
2022/12/20 14:06:21;;;;;;;51.4;36.5;;;;;;;2.3;84.4;99370;;;;
2022/12/20 14:16:21;;;;;;;51.4;36.5;;;;;;;1.9;83.6;99370;;;;
2022/12/20 14:26:21;;;;;;;51.4;36.5;;;;;;;1.6;84.9;99370;;;;
2022/12/20 14:37:21;;;;;;;52.9;37.2;;;;;;;1.4;85.7;99370;;;;
2022/12/20 14:48:21;;;;;;;52.9;37.2;;;;;;;1.3;86.5;99390;;;;
2022/12/20 14:58:21;;;;;;;52.9;37.2;;;;;;;1.1;86.1;99390;;;;
2022/12/20 15:09:21;;;;;;;49.9;31.7;;;;;;;1;86.4;99370;;;;
2022/12/20 15:20:22;;;;;;;49.9;31.7;;;;;;;0.9;85.6;99360;;;;
2022/12/20 15:30:21;;;;;;;49.9;31.7;;;;;;;0.9;85.5;99350;;;;
2022/12/20 15:41:21;;;;;;;50.2;32.9;;;;;;;1;86;99360;;;;
2022/12/20 15:51:21;;;;;;;50.2;32.9;;;;;;;1;85.4;99350;;;;
2022/12/20 16:02:21;;;;;;;50.2;32.9;;;;;;;1;85.4;99360;;;;
2022/12/20 16:12:21;;;;;;;46.2;29.8;;;;;;;1;85.3;99340;;;;
2022/12/20 16:23:21;;;;;;;46.2;29.8;;;;;;;1.2;85.6;99320;;;;
2022/12/20 16:33:21;;;;;;;46.2;29.8;;;;;;;1.4;86.5;99330;;;;
2022/12/20 16:44:21;;;;;;;41.6;27.7;;;;;;;1.4;87;99330;;;;
2022/12/20 16:55:21;;;;;;;41.6;27.7;;;;;;;1.3;87.1;99330;;;;
2022/12/20 17:05:21;;;;;;;47.4;32.3;;;;;;;1.1;87.3;99330;;;;
2022/12/20 17:15:21;;;;;;;47.4;32.3;;;;;;;0.7;86.7;99320;;;;
2022/12/20 17:25:21;;;;;;;47.4;32.3;;;;;;;0.4;86.7;99310;;;;
2022/12/20 17:35:21;;;;;;;57.8;35.4;;;;;;;0.2;87.3;99320;;;;
2022/12/20 17:45:21;;;;;;;57.8;35.4;;;;;;;0.2;87.6;99290;;;;
2022/12/20 17:56:21;;;;;;;57.8;35.4;;;;;;;0.3;88.1;99290;;;;
2022/12/20 18:06:21;;;;;;;82.3;50.1;;;;;;;0.4;88.4;99270;;;;
2022/12/20 18:16:21;;;;;;;82.3;50.1;;;;;;;0.5;88.6;99280;;;;
2022/12/20 18:26:21;;;;;;;82.3;50.1;;;;;;;0.5;88.6;99270;;;;
2022/12/20 18:37:21;;;;;;;69.2;45.1;;;;;;;0.7;88.9;99280;;;;
2022/12/20 18:47:21;;;;;;;69.2;45.1;;;;;;;0.7;88.5;99240;;;;
2022/12/20 18:57:21;;;;;;;69.2;45.1;;;;;;;0.8;88.4;99240;;;;
2022/12/20 19:08:21;;;;;;;53.4;36;;;;;;;1;88.9;99230;;;;
2022/12/20 19:19:21;;;;;;;53.4;36;;;;;;;1.1;88.8;99220;;;;
2022/12/20 19:30:21;;;;;;;53.4;36;;;;;;;1;87.9;99220;;;;
2022/12/20 19:40:21;;;;;;;64;42.4;;;;;;;1.2;88.3;99220;;;;
2022/12/20 19:51:21;;;;;;;64;42.4;;;;;;;1.2;88.5;99230;;;;
2022/12/20 20:02:21;;;;;;;64;42.4;;;;;;;1;88.3;99230;;;;
2022/12/20 20:12:21;;;;;;;59.6;39.7;;;;;;;0.7;88.2;99230;;;;
2022/12/20 20:22:21;;;;;;;59.6;39.7;;;;;;;0.4;88.1;99230;;;;
2022/12/20 20:33:22;;;;;;;59.6;39.7;;;;;;;-0.1;87.6;99220;;;;
2022/12/20 20:43:21;;;;;;;67.4;42.3;;;;;;;-0.4;87.8;99210;;;;
2022/12/20 20:54:21;;;;;;;67.4;42.3;;;;;;;-0.6;88;99200;;;;
2022/12/20 21:05:23;;;;;;;52.9;32.1;;;;;;;-0.9;88.1;99190;;;;
2022/12/20 21:15:22;;;;;;;52.9;32.1;;;;;;;-1;88.6;99190;;;;
2022/12/20 21:26:21;;;;;;;52.9;32.1;;;;;;;-1.1;88.9;99180;;;;
2022/12/20 21:36:21;;;;;;;53.6;28.1;;;;;;;-1.2;89;99170;;;;
2022/12/20 21:47:21;;;;;;;53.6;28.1;;;;;;;-1;89.5;99150;;;;
2022/12/20 21:58:21;;;;;;;53.6;28.1;;;;;;;-1;89.6;99130;;;;
2022/12/20 22:08:21;;;;;;;53.2;32.9;;;;;;;-1.2;89;99090;;;;
2022/12/20 22:19:21;;;;;;;53.2;32.9;;;;;;;-1.3;89.2;99090;;;;
2022/12/20 22:30:21;;;;;;;53.2;32.9;;;;;;;-1.4;89.2;99080;;;;
2022/12/20 22:41:21;;;;;;;48.6;25.6;;;;;;;-1.6;89.2;99090;;;;
2022/12/20 22:51:21;;;;;;;48.6;25.6;;;;;;;-1.8;89.3;99080;;;;
2022/12/20 23:01:21;;;;;;;48.6;25.6;;;;;;;-2;89.3;99070;;;;
2022/12/20 23:22:36;;;;;;;41.7;25.8;;;;;;;-2.1;89.6;99060;;;;
2022/12/20 23:32:23;;;;;;;41.7;25.8;;;;;;;-1.9;90.3;99040;;;;
2022/12/20 23:42:21;;;;;;;45.3;25.1;;;;;;;-1.7;90.8;99020;;;;
2022/12/20 23:53:21;;;;;;;45.3;25.1;;;;;;;-1.6;90.8;99020;;;;
